sensor_id;sensor_type;location;lat;lon;timestamp;P1;durP1;ratioP1;P2;durP2;ratioP2
763;SDS011;5393;48.728;9.140;2022-07-29T00:00:36;5.80;;;5.30;;
763;SDS011;5393;48.728;9.140;2022-07-29T00:03:20;7.53;;;6.30;;
763;SDS011;5393;48.728;9.140;2022-07-29T00:06:05;6.33;;;5.73;;
763;SDS011;5393;48.728;9.140;2022-07-29T00:08:50;6.50;;;5.50;;
763;SDS011;5393;48.728;9.140;2022-07-29T00:11:34;6.27;;;5.70;;
763;SDS011;5393;48.728;9.140;2022-07-29T00:14:19;6.33;;;5.83;;
763;SDS011;5393;48.728;9.140;2022-07-29T00:17:03;6.27;;;5.67;;
763;SDS011;5393;48.728;9.140;2022-07-29T00:19:48;6.70;;;6.10;;
763;SDS011;5393;48.728;9.140;2022-07-29T00:22:32;5.90;;;5.30;;
763;SDS011;5393;48.728;9.140;2022-07-29T00:25:17;8.10;;;5.80;;
763;SDS011;5393;48.728;9.140;2022-07-29T00:28:01;6.10;;;5.20;;
763;SDS011;5393;48.728;9.140;2022-07-29T00:30:46;6.23;;;5.63;;
763;SDS011;5393;48.728;9.140;2022-07-29T00:33:31;6.10;;;5.50;;
763;SDS011;5393;48.728;9.140;2022-07-29T00:36:15;5.87;;;5.37;;
763;SDS011;5393;48.728;9.140;2022-07-29T00:39:00;5.87;;;5.27;;
763;SDS011;5393;48.728;9.140;2022-07-29T00:41:44;5.90;;;5.40;;
763;SDS011;5393;48.728;9.140;2022-07-29T00:44:29;5.43;;;4.90;;
763;SDS011;5393;48.728;9.140;2022-07-29T00:47:13;5.40;;;4.90;;
763;SDS011;5393;48.728;9.140;2022-07-29T00:49:58;5.30;;;4.90;;
763;SDS011;5393;48.728;9.140;2022-07-29T00:52:43;5.90;;;4.90;;
763;SDS011;5393;48.728;9.140;2022-07-29T00:55:27;7.53;;;5.20;;
763;SDS011;5393;48.728;9.140;2022-07-29T00:58:13;5.63;;;5.13;;
763;SDS011;5393;48.728;9.140;2022-07-29T01:00:57;5.70;;;5.10;;
763;SDS011;5393;48.728;9.140;2022-07-29T01:03:42;5.33;;;4.90;;
763;SDS011;5393;48.728;9.140;2022-07-29T01:06:26;5.53;;;5.13;;
763;SDS011;5393;48.728;9.140;2022-07-29T01:09:11;6.70;;;5.10;;
763;SDS011;5393;48.728;9.140;2022-07-29T01:11:56;6.47;;;4.83;;
763;SDS011;5393;48.728;9.140;2022-07-29T01:14:41;6.10;;;5.30;;
763;SDS011;5393;48.728;9.140;2022-07-29T01:17:36;5.70;;;5.20;;
763;SDS011;5393;48.728;9.140;2022-07-29T01:29:21;6.87;;;4.70;;
763;SDS011;5393;48.728;9.140;2022-07-29T01:32:12;5.60;;;5.20;;
763;SDS011;5393;48.728;9.140;2022-07-29T01:34:59;4.90;;;4.40;;
763;SDS011;5393;48.728;9.140;2022-07-29T01:40:51;5.33;;;4.93;;
763;SDS011;5393;48.728;9.140;2022-07-29T01:43:51;4.67;;;4.27;;
763;SDS011;5393;48.728;9.140;2022-07-29T01:46:38;4.57;;;4.20;;
763;SDS011;5393;48.728;9.140;2022-07-29T01:49:27;4.67;;;4.23;;
763;SDS011;5393;48.728;9.140;2022-07-29T01:52:18;4.97;;;4.23;;
763;SDS011;5393;48.728;9.140;2022-07-29T01:55:05;4.77;;;4.27;;
763;SDS011;5393;48.728;9.140;2022-07-29T01:57:52;5.90;;;5.40;;
763;SDS011;5393;48.728;9.140;2022-07-29T02:00:38;5.00;;;4.17;;
763;SDS011;5393;48.728;9.140;2022-07-29T02:03:23;5.40;;;4.30;;
763;SDS011;5393;48.728;9.140;2022-07-29T02:06:08;4.20;;;3.83;;
763;SDS011;5393;48.728;9.140;2022-07-29T02:08:53;4.47;;;4.07;;
763;SDS011;5393;48.728;9.140;2022-07-29T02:11:40;4.00;;;3.70;;
763;SDS011;5393;48.728;9.140;2022-07-29T02:14:27;5.63;;;4.27;;
763;SDS011;5393;48.728;9.140;2022-07-29T02:17:13;4.43;;;4.03;;
763;SDS011;5393;48.728;9.140;2022-07-29T02:20:00;4.37;;;3.97;;
763;SDS011;5393;48.728;9.140;2022-07-29T02:22:45;3.83;;;3.53;;
763;SDS011;5393;48.728;9.140;2022-07-29T02:25:31;4.47;;;4.07;;
763;SDS011;5393;48.728;9.140;2022-07-29T02:28:16;4.40;;;3.97;;
763;SDS011;5393;48.728;9.140;2022-07-29T02:31:01;5.63;;;4.40;;
763;SDS011;5393;48.728;9.140;2022-07-29T02:33:46;4.33;;;4.00;;
763;SDS011;5393;48.728;9.140;2022-07-29T02:36:31;5.50;;;5.00;;
763;SDS011;5393;48.728;9.140;2022-07-29T02:39:16;4.60;;;4.07;;
763;SDS011;5393;48.728;9.140;2022-07-29T02:42:03;4.93;;;3.70;;
763;SDS011;5393;48.728;9.140;2022-07-29T02:44:48;4.30;;;3.90;;
763;SDS011;5393;48.728;9.140;2022-07-29T02:47:37;4.60;;;4.07;;
763;SDS011;5393;48.728;9.140;2022-07-29T02:50:27;5.40;;;4.10;;
763;SDS011;5393;48.728;9.140;2022-07-29T02:53:14;6.40;;;4.50;;
763;SDS011;5393;48.728;9.140;2022-07-29T02:56:08;4.50;;;4.10;;
763;SDS011;5393;48.728;9.140;2022-07-29T02:58:56;5.10;;;3.80;;
763;SDS011;5393;48.728;9.140;2022-07-29T03:01:42;5.47;;;4.03;;
763;SDS011;5393;48.728;9.140;2022-07-29T03:04:27;4.33;;;3.93;;
763;SDS011;5393;48.728;9.140;2022-07-29T03:07:14;5.17;;;4.20;;
763;SDS011;5393;48.728;9.140;2022-07-29T03:09:59;5.10;;;4.40;;
763;SDS011;5393;48.728;9.140;2022-07-29T03:12:44;4.13;;;3.73;;
763;SDS011;5393;48.728;9.140;2022-07-29T03:15:30;4.80;;;4.33;;
763;SDS011;5393;48.728;9.140;2022-07-29T03:18:15;5.00;;;4.50;;
763;SDS011;5393;48.728;9.140;2022-07-29T03:20:59;4.47;;;4.07;;
763;SDS011;5393;48.728;9.140;2022-07-29T03:23:44;4.63;;;4.10;;
763;SDS011;5393;48.728;9.140;2022-07-29T03:26:29;5.00;;;4.50;;
763;SDS011;5393;48.728;9.140;2022-07-29T03:29:13;6.00;;;4.20;;
763;SDS011;5393;48.728;9.140;2022-07-29T03:31:58;4.80;;;4.40;;
763;SDS011;5393;48.728;9.140;2022-07-29T03:34:42;5.30;;;4.50;;
763;SDS011;5393;48.728;9.140;2022-07-29T03:37:27;5.10;;;4.40;;
763;SDS011;5393;48.728;9.140;2022-07-29T03:40:16;4.10;;;3.70;;
763;SDS011;5393;48.728;9.140;2022-07-29T03:43:02;4.50;;;4.10;;
763;SDS011;5393;48.728;9.140;2022-07-29T03:45:49;4.73;;;4.33;;
763;SDS011;5393;48.728;9.140;2022-07-29T03:48:36;4.40;;;3.90;;
763;SDS011;5393;48.728;9.140;2022-07-29T03:51:21;4.43;;;4.03;;
763;SDS011;5393;48.728;9.140;2022-07-29T03:54:06;4.40;;;4.00;;
763;SDS011;5393;48.728;9.140;2022-07-29T03:56:50;5.20;;;3.30;;
763;SDS011;5393;48.728;9.140;2022-07-29T03:59:36;4.37;;;3.97;;
763;SDS011;5393;48.728;9.140;2022-07-29T04:02:21;5.10;;;3.50;;
763;SDS011;5393;48.728;9.140;2022-07-29T04:05:11;3.73;;;3.43;;
763;SDS011;5393;48.728;9.140;2022-07-29T04:07:56;5.10;;;3.23;;
763;SDS011;5393;48.728;9.140;2022-07-29T04:10:40;3.60;;;3.30;;
763;SDS011;5393;48.728;9.140;2022-07-29T04:13:25;3.70;;;3.40;;
763;SDS011;5393;48.728;9.140;2022-07-29T04:16:10;3.80;;;3.50;;
763;SDS011;5393;48.728;9.140;2022-07-29T04:18:54;4.20;;;3.47;;
763;SDS011;5393;48.728;9.140;2022-07-29T04:21:39;3.80;;;3.50;;
763;SDS011;5393;48.728;9.140;2022-07-29T04:24:24;3.43;;;3.13;;
763;SDS011;5393;48.728;9.140;2022-07-29T04:27:09;4.60;;;3.13;;
763;SDS011;5393;48.728;9.140;2022-07-29T04:29:54;3.10;;;2.80;;
763;SDS011;5393;48.728;9.140;2022-07-29T04:32:38;3.60;;;3.30;;
763;SDS011;5393;48.728;9.140;2022-07-29T04:35:23;3.50;;;2.70;;
763;SDS011;5393;48.728;9.140;2022-07-29T04:38:08;3.37;;;2.60;;
763;SDS011;5393;48.728;9.140;2022-07-29T04:40:52;3.30;;;3.00;;
763;SDS011;5393;48.728;9.140;2022-07-29T04:43:37;4.10;;;3.60;;
763;SDS011;5393;48.728;9.140;2022-07-29T04:46:21;3.10;;;2.80;;
763;SDS011;5393;48.728;9.140;2022-07-29T04:49:06;3.50;;;2.90;;
763;SDS011;5393;48.728;9.140;2022-07-29T04:51:50;2.77;;;2.53;;
763;SDS011;5393;48.728;9.140;2022-07-29T04:54:35;2.97;;;2.57;;
763;SDS011;5393;48.728;9.140;2022-07-29T04:57:20;2.60;;;2.40;;
763;SDS011;5393;48.728;9.140;2022-07-29T05:00:05;4.00;;;2.50;;
763;SDS011;5393;48.728;9.140;2022-07-29T05:02:50;3.00;;;2.57;;
763;SDS011;5393;48.728;9.140;2022-07-29T05:05:35;3.33;;;2.80;;
763;SDS011;5393;48.728;9.140;2022-07-29T05:08:19;3.60;;;2.97;;
763;SDS011;5393;48.728;9.140;2022-07-29T05:11:04;2.90;;;2.60;;
763;SDS011;5393;48.728;9.140;2022-07-29T05:13:48;3.40;;;2.60;;
763;SDS011;5393;48.728;9.140;2022-07-29T05:16:33;2.90;;;2.67;;
763;SDS011;5393;48.728;9.140;2022-07-29T05:19:18;3.17;;;2.50;;
763;SDS011;5393;48.728;9.140;2022-07-29T05:22:02;3.03;;;2.73;;
763;SDS011;5393;48.728;9.140;2022-07-29T05:24:47;4.37;;;2.80;;
763;SDS011;5393;48.728;9.140;2022-07-29T05:27:32;3.43;;;2.87;;
763;SDS011;5393;48.728;9.140;2022-07-29T05:30:17;3.43;;;2.37;;
763;SDS011;5393;48.728;9.140;2022-07-29T05:33:01;3.67;;;2.87;;
763;SDS011;5393;48.728;9.140;2022-07-29T05:35:46;3.20;;;2.63;;
763;SDS011;5393;48.728;9.140;2022-07-29T05:38:30;4.10;;;2.80;;
763;SDS011;5393;48.728;9.140;2022-07-29T05:41:15;3.70;;;2.50;;
763;SDS011;5393;48.728;9.140;2022-07-29T05:44:00;2.40;;;2.20;;
763;SDS011;5393;48.728;9.140;2022-07-29T05:46:44;3.07;;;2.70;;
763;SDS011;5393;48.728;9.140;2022-07-29T05:49:29;3.03;;;2.37;;
763;SDS011;5393;48.728;9.140;2022-07-29T05:52:13;2.63;;;2.30;;
763;SDS011;5393;48.728;9.140;2022-07-29T05:54:58;3.07;;;2.53;;
763;SDS011;5393;48.728;9.140;2022-07-29T05:57:46;5.03;;;2.80;;
763;SDS011;5393;48.728;9.140;2022-07-29T06:00:31;2.67;;;2.30;;
763;SDS011;5393;48.728;9.140;2022-07-29T06:03:15;3.27;;;2.90;;
763;SDS011;5393;48.728;9.140;2022-07-29T06:06:00;2.80;;;2.50;;
763;SDS011;5393;48.728;9.140;2022-07-29T06:08:45;3.50;;;2.40;;
763;SDS011;5393;48.728;9.140;2022-07-29T06:11:29;3.57;;;2.73;;
763;SDS011;5393;48.728;9.140;2022-07-29T06:14:14;3.70;;;2.93;;
763;SDS011;5393;48.728;9.140;2022-07-29T06:16:58;3.57;;;3.27;;
763;SDS011;5393;48.728;9.140;2022-07-29T06:19:43;3.97;;;2.97;;
763;SDS011;5393;48.728;9.140;2022-07-29T06:22:27;3.87;;;2.90;;
763;SDS011;5393;48.728;9.140;2022-07-29T06:25:12;3.67;;;3.37;;
763;SDS011;5393;48.728;9.140;2022-07-29T06:27:57;3.77;;;3.27;;
763;SDS011;5393;48.728;9.140;2022-07-29T06:30:41;5.53;;;2.90;;
763;SDS011;5393;48.728;9.140;2022-07-29T06:33:26;3.73;;;3.40;;
763;SDS011;5393;48.728;9.140;2022-07-29T06:36:10;4.10;;;3.70;;
763;SDS011;5393;48.728;9.140;2022-07-29T06:38:55;3.63;;;3.30;;
763;SDS011;5393;48.728;9.140;2022-07-29T06:41:40;4.27;;;3.40;;
763;SDS011;5393;48.728;9.140;2022-07-29T06:44:24;3.50;;;3.20;;
763;SDS011;5393;48.728;9.140;2022-07-29T06:47:09;4.10;;;3.50;;
763;SDS011;5393;48.728;9.140;2022-07-29T06:49:53;4.00;;;3.60;;
763;SDS011;5393;48.728;9.140;2022-07-29T06:52:38;4.77;;;3.83;;
763;SDS011;5393;48.728;9.140;2022-07-29T06:55:24;4.50;;;3.30;;
763;SDS011;5393;48.728;9.140;2022-07-29T06:58:08;4.43;;;4.03;;
763;SDS011;5393;48.728;9.140;2022-07-29T07:00:55;4.00;;;3.60;;
763;SDS011;5393;48.728;9.140;2022-07-29T07:03:39;4.13;;;3.67;;
763;SDS011;5393;48.728;9.140;2022-07-29T07:06:25;3.87;;;3.57;;
763;SDS011;5393;48.728;9.140;2022-07-29T07:09:10;3.83;;;3.53;;
763;SDS011;5393;48.728;9.140;2022-07-29T07:11:54;3.50;;;3.20;;
763;SDS011;5393;48.728;9.140;2022-07-29T07:14:39;3.83;;;3.47;;
763;SDS011;5393;48.728;9.140;2022-07-29T07:17:24;3.37;;;3.07;;
763;SDS011;5393;48.728;9.140;2022-07-29T07:20:08;4.40;;;4.00;;
763;SDS011;5393;48.728;9.140;2022-07-29T07:22:53;3.30;;;3.00;;
763;SDS011;5393;48.728;9.140;2022-07-29T07:25:38;4.10;;;3.37;;
763;SDS011;5393;48.728;9.140;2022-07-29T07:28:22;4.40;;;3.50;;
763;SDS011;5393;48.728;9.140;2022-07-29T07:31:07;3.77;;;3.37;;
763;SDS011;5393;48.728;9.140;2022-07-29T07:33:52;4.23;;;3.30;;
763;SDS011;5393;48.728;9.140;2022-07-29T07:36:37;3.57;;;2.70;;
763;SDS011;5393;48.728;9.140;2022-07-29T07:39:22;5.60;;;3.23;;
763;SDS011;5393;48.728;9.140;2022-07-29T07:42:06;3.67;;;3.37;;
763;SDS011;5393;48.728;9.140;2022-07-29T07:44:51;3.80;;;3.20;;
763;SDS011;5393;48.728;9.140;2022-07-29T07:47:37;4.33;;;3.93;;
763;SDS011;5393;48.728;9.140;2022-07-29T07:50:22;5.00;;;4.00;;
763;SDS011;5393;48.728;9.140;2022-07-29T07:53:07;3.80;;;3.50;;
763;SDS011;5393;48.728;9.140;2022-07-29T07:55:51;3.67;;;3.37;;
763;SDS011;5393;48.728;9.140;2022-07-29T07:58:36;4.13;;;3.70;;
763;SDS011;5393;48.728;9.140;2022-07-29T08:01:20;3.90;;;3.60;;
763;SDS011;5393;48.728;9.140;2022-07-29T08:04:06;3.43;;;3.10;;
763;SDS011;5393;48.728;9.140;2022-07-29T08:06:51;4.97;;;4.17;;
763;SDS011;5393;48.728;9.140;2022-07-29T08:09:37;3.97;;;3.67;;
763;SDS011;5393;48.728;9.140;2022-07-29T08:12:22;3.80;;;3.50;;
763;SDS011;5393;48.728;9.140;2022-07-29T08:15:07;4.07;;;3.77;;
763;SDS011;5393;48.728;9.140;2022-07-29T08:17:52;4.83;;;3.40;;
763;SDS011;5393;48.728;9.140;2022-07-29T08:20:36;5.97;;;3.40;;
763;SDS011;5393;48.728;9.140;2022-07-29T08:23:22;4.03;;;3.63;;
763;SDS011;5393;48.728;9.140;2022-07-29T08:26:07;3.67;;;3.37;;
763;SDS011;5393;48.728;9.140;2022-07-29T08:28:55;3.80;;;3.40;;
763;SDS011;5393;48.728;9.140;2022-07-29T08:31:40;3.73;;;3.30;;
763;SDS011;5393;48.728;9.140;2022-07-29T08:34:24;6.40;;;4.00;;
763;SDS011;5393;48.728;9.140;2022-07-29T08:37:09;4.10;;;3.70;;
763;SDS011;5393;48.728;9.140;2022-07-29T08:39:54;4.30;;;3.90;;
763;SDS011;5393;48.728;9.140;2022-07-29T08:42:38;4.10;;;3.70;;
763;SDS011;5393;48.728;9.140;2022-07-29T08:45:23;4.30;;;3.50;;
763;SDS011;5393;48.728;9.140;2022-07-29T08:48:08;5.83;;;3.73;;
763;SDS011;5393;48.728;9.140;2022-07-29T08:50:54;5.00;;;4.50;;
763;SDS011;5393;48.728;9.140;2022-07-29T08:53:40;4.73;;;3.47;;
763;SDS011;5393;48.728;9.140;2022-07-29T08:56:26;5.40;;;3.77;;
763;SDS011;5393;48.728;9.140;2022-07-29T08:59:11;4.40;;;4.00;;
763;SDS011;5393;48.728;9.140;2022-07-29T09:01:57;5.30;;;3.73;;
763;SDS011;5393;48.728;9.140;2022-07-29T09:04:43;4.70;;;4.30;;
763;SDS011;5393;48.728;9.140;2022-07-29T09:07:28;5.70;;;4.23;;
763;SDS011;5393;48.728;9.140;2022-07-29T09:10:13;5.10;;;4.47;;
763;SDS011;5393;48.728;9.140;2022-07-29T09:12:57;4.30;;;3.90;;
763;SDS011;5393;48.728;9.140;2022-07-29T09:15:43;3.80;;;3.40;;
763;SDS011;5393;48.728;9.140;2022-07-29T09:18:38;4.50;;;3.83;;
763;SDS011;5393;48.728;9.140;2022-07-29T09:21:23;6.30;;;4.20;;
763;SDS011;5393;48.728;9.140;2022-07-29T09:24:37;6.03;;;3.77;;
763;SDS011;5393;48.728;9.140;2022-07-29T09:27:22;6.63;;;3.97;;
763;SDS011;5393;48.728;9.140;2022-07-29T09:30:10;4.57;;;3.83;;
763;SDS011;5393;48.728;9.140;2022-07-29T09:32:55;4.10;;;3.70;;
763;SDS011;5393;48.728;9.140;2022-07-29T09:35:40;8.00;;;4.13;;
763;SDS011;5393;48.728;9.140;2022-07-29T09:38:25;4.77;;;4.27;;
763;SDS011;5393;48.728;9.140;2022-07-29T09:41:10;5.60;;;3.93;;
763;SDS011;5393;48.728;9.140;2022-07-29T09:43:55;4.30;;;3.90;;
763;SDS011;5393;48.728;9.140;2022-07-29T09:46:41;4.27;;;3.87;;
763;SDS011;5393;48.728;9.140;2022-07-29T09:49:49;4.60;;;4.20;;
763;SDS011;5393;48.728;9.140;2022-07-29T09:52:41;4.97;;;3.70;;
763;SDS011;5393;48.728;9.140;2022-07-29T09:55:28;4.37;;;3.97;;
763;SDS011;5393;48.728;9.140;2022-07-29T09:58:20;4.00;;;3.60;;
763;SDS011;5393;48.728;9.140;2022-07-29T10:01:06;3.33;;;3.13;;
763;SDS011;5393;48.728;9.140;2022-07-29T10:03:51;4.40;;;4.07;;
763;SDS011;5393;48.728;9.140;2022-07-29T10:06:45;4.57;;;3.70;;
763;SDS011;5393;48.728;9.140;2022-07-29T10:09:39;4.23;;;3.83;;
763;SDS011;5393;48.728;9.140;2022-07-29T10:12:34;5.00;;;3.80;;
763;SDS011;5393;48.728;9.140;2022-07-29T10:15:34;4.17;;;3.60;;
763;SDS011;5393;48.728;9.140;2022-07-29T10:18:24;4.33;;;3.73;;
763;SDS011;5393;48.728;9.140;2022-07-29T10:21:09;3.57;;;3.27;;
763;SDS011;5393;48.728;9.140;2022-07-29T10:23:54;5.50;;;4.20;;
763;SDS011;5393;48.728;9.140;2022-07-29T10:26:38;5.17;;;4.67;;
763;SDS011;5393;48.728;9.140;2022-07-29T10:29:24;4.43;;;4.00;;
763;SDS011;5393;48.728;9.140;2022-07-29T10:32:11;4.87;;;4.37;;
763;SDS011;5393;48.728;9.140;2022-07-29T10:35:08;5.70;;;4.63;;
763;SDS011;5393;48.728;9.140;2022-07-29T10:38:02;5.50;;;5.00;;
763;SDS011;5393;48.728;9.140;2022-07-29T10:40:54;6.70;;;4.67;;
763;SDS011;5393;48.728;9.140;2022-07-29T10:44:02;4.83;;;4.43;;
763;SDS011;5393;48.728;9.140;2022-07-29T10:46:48;4.63;;;4.23;;
763;SDS011;5393;48.728;9.140;2022-07-29T10:49:33;6.50;;;5.20;;
763;SDS011;5393;48.728;9.140;2022-07-29T10:52:17;8.50;;;5.00;;
763;SDS011;5393;48.728;9.140;2022-07-29T10:55:03;5.60;;;5.10;;
763;SDS011;5393;48.728;9.140;2022-07-29T10:58:10;6.63;;;5.23;;
763;SDS011;5393;48.728;9.140;2022-07-29T11:00:53;8.47;;;6.00;;
763;SDS011;5393;48.728;9.140;2022-07-29T11:03:47;6.67;;;6.03;;
763;SDS011;5393;48.728;9.140;2022-07-29T11:09:39;7.67;;;6.47;;
763;SDS011;5393;48.728;9.140;2022-07-29T11:15:21;10.47;;;7.90;;
763;SDS011;5393;48.728;9.140;2022-07-29T11:18:06;11.13;;;8.60;;
763;SDS011;5393;48.728;9.140;2022-07-29T11:20:51;14.13;;;9.17;;
763;SDS011;5393;48.728;9.140;2022-07-29T11:23:39;11.10;;;9.07;;
763;SDS011;5393;48.728;9.140;2022-07-29T11:26:26;9.93;;;9.03;;
763;SDS011;5393;48.728;9.140;2022-07-29T11:29:20;10.53;;;9.00;;
763;SDS011;5393;48.728;9.140;2022-07-29T11:32:10;9.40;;;8.50;;
763;SDS011;5393;48.728;9.140;2022-07-29T11:41:21;12.40;;;9.03;;
763;SDS011;5393;48.728;9.140;2022-07-29T11:44:07;10.23;;;9.13;;
763;SDS011;5393;48.728;9.140;2022-07-29T11:46:52;9.70;;;8.80;;
763;SDS011;5393;48.728;9.140;2022-07-29T11:49:37;9.60;;;8.70;;
763;SDS011;5393;48.728;9.140;2022-07-29T11:52:35;9.43;;;8.37;;
763;SDS011;5393;48.728;9.140;2022-07-29T11:55:21;10.73;;;9.60;;
763;SDS011;5393;48.728;9.140;2022-07-29T11:58:07;8.47;;;7.67;;
763;SDS011;5393;48.728;9.140;2022-07-29T12:00:51;10.47;;;8.10;;
763;SDS011;5393;48.728;9.140;2022-07-29T12:03:36;9.33;;;8.43;;
763;SDS011;5393;48.728;9.140;2022-07-29T12:06:21;9.07;;;8.10;;
763;SDS011;5393;48.728;9.140;2022-07-29T12:09:07;8.43;;;7.07;;
763;SDS011;5393;48.728;9.140;2022-07-29T12:11:58;7.93;;;6.53;;
763;SDS011;5393;48.728;9.140;2022-07-29T12:14:43;8.27;;;6.50;;
763;SDS011;5393;48.728;9.140;2022-07-29T12:17:32;7.93;;;6.20;;
763;SDS011;5393;48.728;9.140;2022-07-29T12:20:23;6.90;;;5.77;;
763;SDS011;5393;48.728;9.140;2022-07-29T12:23:08;5.90;;;5.40;;
763;SDS011;5393;48.728;9.140;2022-07-29T12:25:55;7.07;;;5.33;;
763;SDS011;5393;48.728;9.140;2022-07-29T12:28:40;5.47;;;4.97;;
763;SDS011;5393;48.728;9.140;2022-07-29T12:31:24;6.20;;;5.70;;
763;SDS011;5393;48.728;9.140;2022-07-29T12:34:09;6.20;;;5.60;;
763;SDS011;5393;48.728;9.140;2022-07-29T12:36:54;6.70;;;6.10;;
763;SDS011;5393;48.728;9.140;2022-07-29T12:39:39;8.00;;;5.70;;
763;SDS011;5393;48.728;9.140;2022-07-29T12:42:24;5.80;;;4.90;;
763;SDS011;5393;48.728;9.140;2022-07-29T12:45:08;5.70;;;5.03;;
763;SDS011;5393;48.728;9.140;2022-07-29T12:47:53;7.53;;;5.67;;
763;SDS011;5393;48.728;9.140;2022-07-29T12:50:57;5.77;;;5.00;;
763;SDS011;5393;48.728;9.140;2022-07-29T12:54:01;6.73;;;6.00;;
763;SDS011;5393;48.728;9.140;2022-07-29T12:56:46;7.10;;;5.80;;
763;SDS011;5393;48.728;9.140;2022-07-29T12:59:42;6.10;;;5.20;;
763;SDS011;5393;48.728;9.140;2022-07-29T13:02:26;8.17;;;6.07;;
763;SDS011;5393;48.728;9.140;2022-07-29T13:05:11;7.10;;;6.40;;
763;SDS011;5393;48.728;9.140;2022-07-29T13:07:56;6.63;;;5.77;;
763;SDS011;5393;48.728;9.140;2022-07-29T13:10:53;9.33;;;6.33;;
763;SDS011;5393;48.728;9.140;2022-07-29T13:13:49;6.93;;;5.43;;
763;SDS011;5393;48.728;9.140;2022-07-29T13:16:35;5.70;;;5.20;;
763;SDS011;5393;48.728;9.140;2022-07-29T13:19:20;5.60;;;5.10;;
763;SDS011;5393;48.728;9.140;2022-07-29T13:22:20;5.27;;;4.77;;
763;SDS011;5393;48.728;9.140;2022-07-29T13:25:06;6.00;;;5.50;;
763;SDS011;5393;48.728;9.140;2022-07-29T13:27:50;6.57;;;5.63;;
763;SDS011;5393;48.728;9.140;2022-07-29T13:30:39;8.07;;;6.60;;
763;SDS011;5393;48.728;9.140;2022-07-29T13:33:24;8.73;;;6.40;;
763;SDS011;5393;48.728;9.140;2022-07-29T13:36:09;6.53;;;5.93;;
763;SDS011;5393;48.728;9.140;2022-07-29T13:38:53;7.17;;;6.53;;
763;SDS011;5393;48.728;9.140;2022-07-29T13:41:38;9.73;;;6.13;;
763;SDS011;5393;48.728;9.140;2022-07-29T13:44:23;7.53;;;6.80;;
763;SDS011;5393;48.728;9.140;2022-07-29T13:47:08;8.10;;;6.43;;
763;SDS011;5393;48.728;9.140;2022-07-29T13:49:52;7.00;;;6.40;;
763;SDS011;5393;48.728;9.140;2022-07-29T13:52:37;7.20;;;6.53;;
763;SDS011;5393;48.728;9.140;2022-07-29T13:55:22;8.00;;;7.20;;
763;SDS011;5393;48.728;9.140;2022-07-29T13:58:06;7.30;;;6.70;;
763;SDS011;5393;48.728;9.140;2022-07-29T14:00:51;7.30;;;6.60;;
763;SDS011;5393;48.728;9.140;2022-07-29T14:03:35;7.90;;;6.57;;
763;SDS011;5393;48.728;9.140;2022-07-29T14:06:24;7.43;;;6.63;;
763;SDS011;5393;48.728;9.140;2022-07-29T14:09:08;9.60;;;6.57;;
763;SDS011;5393;48.728;9.140;2022-07-29T14:11:53;7.40;;;6.70;;
763;SDS011;5393;48.728;9.140;2022-07-29T14:14:37;6.30;;;5.50;;
763;SDS011;5393;48.728;9.140;2022-07-29T14:17:22;8.40;;;5.57;;
763;SDS011;5393;48.728;9.140;2022-07-29T14:20:07;5.90;;;5.40;;
763;SDS011;5393;48.728;9.140;2022-07-29T14:22:51;6.30;;;5.80;;
763;SDS011;5393;48.728;9.140;2022-07-29T14:25:36;6.23;;;5.23;;
763;SDS011;5393;48.728;9.140;2022-07-29T14:28:21;7.03;;;6.43;;
763;SDS011;5393;48.728;9.140;2022-07-29T14:31:05;6.47;;;5.70;;
763;SDS011;5393;48.728;9.140;2022-07-29T14:33:50;6.67;;;5.73;;
763;SDS011;5393;48.728;9.140;2022-07-29T14:36:34;5.80;;;5.30;;
763;SDS011;5393;48.728;9.140;2022-07-29T14:39:19;8.60;;;6.27;;
763;SDS011;5393;48.728;9.140;2022-07-29T14:42:04;6.07;;;5.47;;
763;SDS011;5393;48.728;9.140;2022-07-29T14:44:49;7.97;;;5.93;;
763;SDS011;5393;48.728;9.140;2022-07-29T14:47:33;8.87;;;5.97;;
763;SDS011;5393;48.728;9.140;2022-07-29T14:50:18;7.40;;;6.70;;
763;SDS011;5393;48.728;9.140;2022-07-29T14:53:03;6.30;;;5.70;;
763;SDS011;5393;48.728;9.140;2022-07-29T14:55:48;7.00;;;6.27;;
763;SDS011;5393;48.728;9.140;2022-07-29T14:58:32;6.80;;;6.20;;
763;SDS011;5393;48.728;9.140;2022-07-29T15:01:17;7.33;;;6.00;;
763;SDS011;5393;48.728;9.140;2022-07-29T15:04:02;5.90;;;5.20;;
763;SDS011;5393;48.728;9.140;2022-07-29T15:06:47;5.90;;;5.30;;
763;SDS011;5393;48.728;9.140;2022-07-29T15:09:32;5.40;;;4.90;;
763;SDS011;5393;48.728;9.140;2022-07-29T15:12:16;6.70;;;5.40;;
763;SDS011;5393;48.728;9.140;2022-07-29T15:15:01;5.80;;;5.30;;
763;SDS011;5393;48.728;9.140;2022-07-29T15:17:45;6.47;;;5.77;;
763;SDS011;5393;48.728;9.140;2022-07-29T15:20:30;6.20;;;5.60;;
763;SDS011;5393;48.728;9.140;2022-07-29T15:23:14;7.23;;;6.20;;
763;SDS011;5393;48.728;9.140;2022-07-29T15:25:59;6.53;;;5.97;;
763;SDS011;5393;48.728;9.140;2022-07-29T15:28:44;6.87;;;6.20;;
763;SDS011;5393;48.728;9.140;2022-07-29T15:31:29;8.87;;;6.80;;
763;SDS011;5393;48.728;9.140;2022-07-29T15:34:14;7.47;;;6.80;;
763;SDS011;5393;48.728;9.140;2022-07-29T15:36:59;8.70;;;6.17;;
763;SDS011;5393;48.728;9.140;2022-07-29T15:39:44;7.83;;;7.10;;
763;SDS011;5393;48.728;9.140;2022-07-29T15:42:28;7.60;;;6.80;;
763;SDS011;5393;48.728;9.140;2022-07-29T15:45:13;6.53;;;5.93;;
763;SDS011;5393;48.728;9.140;2022-07-29T15:47:57;5.80;;;5.30;;
763;SDS011;5393;48.728;9.140;2022-07-29T15:50:42;5.50;;;5.10;;
763;SDS011;5393;48.728;9.140;2022-07-29T15:53:27;5.80;;;5.30;;
763;SDS011;5393;48.728;9.140;2022-07-29T15:56:12;7.47;;;5.60;;
763;SDS011;5393;48.728;9.140;2022-07-29T15:58:56;5.70;;;5.20;;
763;SDS011;5393;48.728;9.140;2022-07-29T16:01:41;6.47;;;5.53;;
763;SDS011;5393;48.728;9.140;2022-07-29T16:04:26;5.70;;;5.20;;
763;SDS011;5393;48.728;9.140;2022-07-29T16:07:11;5.40;;;4.90;;
763;SDS011;5393;48.728;9.140;2022-07-29T16:09:55;6.10;;;5.23;;
763;SDS011;5393;48.728;9.140;2022-07-29T16:12:40;5.57;;;5.00;;
763;SDS011;5393;48.728;9.140;2022-07-29T16:15:24;5.50;;;5.00;;
763;SDS011;5393;48.728;9.140;2022-07-29T16:18:09;5.90;;;5.37;;
763;SDS011;5393;48.728;9.140;2022-07-29T16:20:54;5.90;;;5.40;;
763;SDS011;5393;48.728;9.140;2022-07-29T16:23:38;7.97;;;5.87;;
763;SDS011;5393;48.728;9.140;2022-07-29T16:26:24;6.10;;;5.23;;
763;SDS011;5393;48.728;9.140;2022-07-29T16:29:08;6.07;;;5.47;;
763;SDS011;5393;48.728;9.140;2022-07-29T16:31:53;5.70;;;5.20;;
763;SDS011;5393;48.728;9.140;2022-07-29T16:34:38;5.90;;;5.10;;
763;SDS011;5393;48.728;9.140;2022-07-29T16:37:23;6.23;;;5.63;;
763;SDS011;5393;48.728;9.140;2022-07-29T16:40:08;6.37;;;5.77;;
763;SDS011;5393;48.728;9.140;2022-07-29T16:42:53;5.27;;;4.77;;
763;SDS011;5393;48.728;9.140;2022-07-29T16:45:38;6.20;;;5.70;;
763;SDS011;5393;48.728;9.140;2022-07-29T16:48:22;6.10;;;5.50;;
763;SDS011;5393;48.728;9.140;2022-07-29T16:51:07;6.03;;;5.53;;
763;SDS011;5393;48.728;9.140;2022-07-29T16:53:51;6.47;;;5.87;;
763;SDS011;5393;48.728;9.140;2022-07-29T16:56:36;5.80;;;5.20;;
763;SDS011;5393;48.728;9.140;2022-07-29T16:59:21;5.13;;;4.63;;
763;SDS011;5393;48.728;9.140;2022-07-29T17:02:05;6.17;;;5.67;;
763;SDS011;5393;48.728;9.140;2022-07-29T17:04:50;5.70;;;5.20;;
763;SDS011;5393;48.728;9.140;2022-07-29T17:07:35;5.70;;;5.23;;
763;SDS011;5393;48.728;9.140;2022-07-29T17:10:20;5.87;;;5.37;;
763;SDS011;5393;48.728;9.140;2022-07-29T17:13:05;6.30;;;5.80;;
763;SDS011;5393;48.728;9.140;2022-07-29T17:15:49;5.33;;;4.83;;
763;SDS011;5393;48.728;9.140;2022-07-29T17:18:34;6.17;;;5.60;;
763;SDS011;5393;48.728;9.140;2022-07-29T17:21:19;5.13;;;4.73;;
763;SDS011;5393;48.728;9.140;2022-07-29T17:24:04;5.30;;;4.80;;
763;SDS011;5393;48.728;9.140;2022-07-29T17:26:48;5.10;;;4.70;;
763;SDS011;5393;48.728;9.140;2022-07-29T17:29:33;5.40;;;5.00;;
763;SDS011;5393;48.728;9.140;2022-07-29T17:32:18;5.03;;;4.63;;
763;SDS011;5393;48.728;9.140;2022-07-29T17:35:03;5.50;;;4.90;;
763;SDS011;5393;48.728;9.140;2022-07-29T17:38:08;5.17;;;4.77;;
763;SDS011;5393;48.728;9.140;2022-07-29T17:40:52;5.37;;;4.87;;
763;SDS011;5393;48.728;9.140;2022-07-29T17:43:37;5.40;;;5.00;;
763;SDS011;5393;48.728;9.140;2022-07-29T17:46:23;5.40;;;4.90;;
763;SDS011;5393;48.728;9.140;2022-07-29T17:49:09;5.50;;;5.00;;
763;SDS011;5393;48.728;9.140;2022-07-29T17:51:54;5.83;;;4.80;;